createdAt,value
2022-09-02T00:01:56.353Z,14.40
2022-09-02T00:04:27.422Z,14.30
2022-09-02T00:06:56.477Z,14.30
2022-09-02T00:09:27.541Z,14.40
2022-09-02T00:11:57.359Z,14.40
2022-09-02T00:14:28.044Z,14.30
2022-09-02T00:16:56.876Z,14.20
2022-09-02T00:19:31.043Z,14.30
2022-09-02T00:22:01.739Z,14.20
2022-09-02T00:24:30.868Z,14.20
2022-09-02T00:26:59.320Z,14.20
2022-09-02T00:29:29.045Z,14.20
2022-09-02T00:31:57.983Z,14.10
2022-09-02T00:34:28.125Z,14.10
2022-09-02T00:36:56.809Z,14.10
2022-09-02T00:39:26.254Z,14.10
2022-09-02T00:41:55.274Z,14.00
2022-09-02T00:44:23.816Z,14.10
2022-09-02T00:46:52.128Z,14.00
2022-09-02T00:49:27.161Z,14.10
2022-09-02T00:52:04.553Z,14.10
2022-09-02T00:54:37.690Z,14.10
2022-09-02T00:57:12.398Z,14.00
2022-09-02T00:59:55.879Z,14.00
2022-09-02T01:02:26.295Z,13.90
2022-09-02T01:04:56.960Z,13.80
2022-09-02T01:07:30.665Z,13.80
2022-09-02T01:10:04.231Z,13.80
2022-09-02T01:12:33.898Z,13.70
2022-09-02T01:15:03.430Z,13.60
2022-09-02T01:17:34.238Z,13.50
2022-09-02T01:20:07.946Z,13.50
2022-09-02T01:22:38.351Z,13.50
2022-09-02T01:25:11.446Z,13.30
2022-09-02T01:27:40.359Z,13.30
2022-09-02T01:30:14.850Z,13.30
2022-09-02T01:32:46.538Z,13.20
2022-09-02T01:35:15.549Z,13.10
2022-09-02T01:37:55.789Z,13.10
2022-09-02T01:40:26.192Z,13.10
2022-09-02T01:42:59.725Z,13.00
2022-09-02T01:45:29.331Z,12.90
2022-09-02T01:47:58.540Z,12.80
2022-09-02T01:50:32.459Z,12.80
2022-09-02T01:53:04.003Z,12.80
2022-09-02T01:55:34.343Z,12.80
2022-09-02T01:58:05.282Z,12.70
2022-09-02T02:00:34.002Z,12.70
2022-09-02T02:03:04.739Z,12.70
2022-09-02T02:05:37.035Z,12.70
2022-09-02T02:08:08.147Z,12.60
2022-09-02T02:10:36.821Z,12.70
2022-09-02T02:13:05.124Z,12.70
2022-09-02T02:18:00.812Z,12.60
2022-09-02T02:20:29.324Z,12.70
2022-09-02T02:22:57.686Z,12.60
2022-09-02T02:25:30.753Z,12.60
2022-09-02T02:28:02.480Z,12.50
2022-09-02T02:30:31.559Z,12.50
2022-09-02T02:33:01.354Z,12.40
2022-09-02T02:35:29.907Z,12.50
2022-09-02T02:37:58.428Z,12.50
2022-09-02T02:40:34.258Z,12.50
2022-09-02T02:43:05.232Z,12.40
2022-09-02T02:45:33.857Z,12.40
2022-09-02T02:48:02.331Z,12.30
2022-09-02T02:50:32.828Z,12.40
2022-09-02T02:53:03.337Z,12.40
2022-09-02T02:55:33.940Z,12.40
2022-09-02T02:58:02.625Z,12.40
2022-09-02T03:00:33.404Z,12.30
2022-09-02T03:03:07.832Z,12.20
2022-09-02T03:05:37.882Z,12.20
2022-09-02T03:08:07.583Z,12.20
2022-09-02T03:10:38.678Z,12.20
2022-09-02T03:13:07.933Z,12.20
2022-09-02T03:15:38.506Z,12.30
2022-09-02T03:18:07.888Z,12.30
2022-09-02T03:20:37.257Z,12.20
2022-09-02T03:23:05.567Z,12.20
2022-09-02T03:25:36.659Z,12.10
2022-09-02T03:28:06.077Z,12.10
2022-09-02T03:30:35.980Z,12.10
2022-09-02T03:33:05.866Z,12.10
2022-09-02T03:35:39.067Z,12.10
2022-09-02T03:38:10.272Z,12.20
2022-09-02T03:40:43.525Z,12.10
2022-09-02T03:43:12.170Z,12.10
2022-09-02T03:45:43.549Z,12.20
2022-09-02T03:48:14.624Z,12.10
2022-09-02T03:50:48.409Z,12.10
2022-09-02T03:53:19.726Z,12.20
2022-09-02T03:55:51.014Z,12.20
2022-09-02T03:58:20.075Z,12.20
2022-09-02T04:00:55.048Z,12.20
2022-09-02T04:03:24.227Z,12.30
2022-09-02T04:05:53.026Z,12.30
2022-09-02T04:08:21.937Z,12.30
2022-09-02T04:10:53.426Z,12.40
2022-09-02T04:13:23.675Z,12.40
2022-09-02T04:15:52.629Z,12.30
2022-09-02T04:18:21.217Z,12.30
2022-09-02T04:20:49.649Z,12.30
2022-09-02T04:23:18.243Z,12.20
2022-09-02T04:25:46.928Z,12.20
2022-09-02T04:28:18.701Z,12.20
2022-09-02T04:30:49.143Z,12.20
2022-09-02T04:33:17.967Z,12.00
2022-09-02T04:35:49.190Z,11.90
2022-09-02T04:38:18.066Z,11.90
2022-09-02T04:40:48.456Z,12.10
2022-09-02T04:43:18.350Z,12.20
2022-09-02T04:45:47.969Z,12.20
2022-09-02T04:48:17.106Z,12.30
2022-09-02T04:50:47.679Z,12.30
2022-09-02T04:53:16.266Z,12.40
2022-09-02T04:55:44.479Z,12.40
2022-09-02T04:58:13.006Z,12.50
2022-09-02T05:00:44.968Z,12.50
2022-09-02T05:03:13.695Z,12.50
2022-09-02T05:05:42.712Z,12.60
2022-09-02T05:08:14.025Z,12.70
2022-09-02T05:10:48.321Z,12.70
2022-09-02T05:13:16.639Z,12.70
2022-09-02T05:15:48.418Z,12.80
2022-09-02T05:18:16.850Z,12.80
2022-09-02T05:20:45.458Z,12.80
2022-09-02T05:23:14.848Z,12.90
2022-09-02T05:25:44.041Z,13.00
2022-09-02T05:28:12.819Z,13.00
2022-09-02T05:30:43.335Z,13.10
2022-09-02T05:33:15.134Z,13.20
2022-09-02T05:35:45.987Z,13.40
2022-09-02T05:38:17.305Z,13.50
2022-09-02T05:40:46.047Z,13.60
2022-09-02T05:43:14.396Z,13.70
2022-09-02T05:45:43.939Z,13.90
2022-09-02T05:48:27.846Z,14.00
2022-09-02T05:50:57.690Z,14.20
2022-09-02T05:53:27.077Z,14.20
2022-09-02T05:55:56.467Z,14.30
2022-09-02T05:58:25.054Z,14.30
2022-09-02T06:00:53.886Z,14.40
2022-09-02T06:03:24.585Z,14.50
2022-09-02T06:06:02.994Z,14.60
2022-09-02T06:08:39.300Z,14.70
2022-09-02T06:11:11.057Z,14.70
2022-09-02T06:13:42.710Z,14.90
2022-09-02T06:16:16.184Z,14.70
2022-09-02T06:18:46.981Z,15.00
2022-09-02T06:21:21.054Z,15.20
2022-09-02T06:23:50.339Z,15.20
2022-09-02T06:26:19.693Z,15.40
2022-09-02T06:28:48.232Z,15.60
2022-09-02T06:31:18.984Z,15.90
2022-09-02T06:33:49.818Z,15.80
2022-09-02T06:36:21.489Z,16.00
2022-09-02T06:38:54.745Z,15.70
2022-09-02T06:41:26.847Z,15.50
2022-09-02T06:43:56.992Z,15.40
2022-09-02T06:46:28.192Z,15.50
2022-09-02T06:48:58.292Z,15.30
2022-09-02T06:51:31.413Z,15.50
2022-09-02T06:54:03.567Z,15.70
2022-09-02T06:56:33.624Z,15.80
2022-09-02T06:59:03.060Z,16.00
2022-09-02T07:01:34.242Z,16.10
2022-09-02T07:04:22.546Z,16.30
2022-09-02T07:06:52.812Z,16.50
2022-09-02T07:09:31.001Z,16.30
2022-09-02T07:12:04.581Z,16.70
2022-09-02T07:14:37.336Z,16.40
2022-09-02T07:17:06.971Z,16.60
2022-09-02T07:19:37.046Z,17.00
2022-09-02T07:22:05.833Z,16.90
2022-09-02T07:24:34.328Z,17.20
2022-09-02T07:27:07.805Z,17.40
2022-09-02T07:29:36.674Z,17.40
2022-09-02T07:32:05.770Z,17.40
2022-09-02T07:34:34.157Z,17.30
2022-09-02T07:37:11.057Z,17.40
2022-09-02T07:39:40.066Z,17.70
2022-09-02T07:42:11.096Z,18.00
2022-09-02T07:44:42.570Z,18.10
2022-09-02T07:47:11.247Z,18.20
2022-09-02T07:52:30.294Z,18.10
2022-09-02T07:54:59.466Z,18.20
2022-09-02T07:57:28.774Z,18.60
2022-09-02T07:59:59.564Z,18.70
2022-09-02T08:02:28.436Z,18.60
2022-09-02T08:07:56.615Z,19.10
2022-09-02T08:10:25.943Z,19.20
2022-09-02T08:12:54.325Z,19.20
2022-09-02T08:15:23.057Z,19.10
2022-09-02T08:17:51.836Z,19.30
2022-09-02T08:20:20.671Z,19.70
2022-09-02T08:22:55.989Z,19.70
2022-09-02T08:25:36.216Z,19.70
2022-09-02T08:28:05.658Z,19.60
2022-09-02T08:30:35.032Z,19.70
2022-09-02T08:33:06.641Z,19.80
2022-09-02T08:35:35.363Z,19.60
2022-09-02T08:38:03.747Z,19.70
2022-09-02T08:40:39.333Z,19.80
2022-09-02T08:43:22.913Z,19.80
2022-09-02T08:45:55.661Z,20.10
2022-09-02T08:48:32.845Z,20.40
2022-09-02T08:51:08.553Z,20.40
2022-09-02T08:53:43.963Z,20.50
2022-09-02T08:56:18.194Z,20.70
2022-09-02T08:58:51.005Z,21.00
2022-09-02T09:01:30.445Z,21.10
2022-09-02T09:04:13.434Z,21.10
2022-09-02T09:06:54.936Z,21.60
2022-09-02T09:09:29.643Z,21.30
2022-09-02T09:12:10.550Z,21.70
2022-09-02T09:14:48.481Z,22.00
2022-09-02T09:17:26.330Z,22.50
2022-09-02T09:19:55.837Z,22.20
2022-09-02T09:22:29.873Z,22.20
2022-09-02T09:24:59.117Z,22.20
2022-09-02T09:27:28.923Z,22.20
2022-09-02T09:29:57.758Z,22.20
2022-09-02T09:32:30.547Z,22.80
2022-09-02T09:35:03.357Z,22.40
2022-09-02T09:37:36.294Z,22.60
2022-09-02T09:40:38.418Z,22.60
2022-09-02T09:43:18.130Z,23.00
2022-09-02T09:45:49.395Z,22.80
2022-09-02T09:48:28.497Z,23.40
2022-09-02T09:51:16.009Z,24.00
2022-09-02T09:53:45.367Z,24.00
2022-09-02T09:56:37.250Z,24.20
2022-09-02T09:59:30.340Z,24.40
2022-09-02T10:01:58.999Z,24.70
2022-09-02T10:04:46.803Z,24.50
2022-09-02T10:07:15.514Z,24.30
2022-09-02T10:09:44.062Z,24.20
2022-09-02T10:12:13.800Z,24.40
2022-09-02T10:14:46.557Z,25.00
2022-09-02T10:17:33.650Z,25.00
2022-09-02T10:20:09.164Z,24.90
2022-09-02T10:23:06.078Z,25.10
2022-09-02T10:25:42.724Z,25.10
2022-09-02T10:28:21.683Z,24.80
2022-09-02T10:31:02.059Z,24.60
2022-09-02T10:33:43.951Z,24.10
2022-09-02T10:36:23.294Z,22.90
2022-09-02T10:38:53.519Z,22.00
2022-09-02T10:44:31.413Z,21.90
2022-09-02T10:47:11.553Z,21.90
2022-09-02T10:49:53.802Z,21.50
2022-09-02T10:52:52.591Z,22.30
2022-09-02T10:55:34.661Z,23.00
2022-09-02T10:58:09.938Z,23.20
2022-09-02T11:00:42.560Z,22.80
2022-09-02T11:03:18.150Z,22.20
2022-09-02T11:05:51.849Z,21.90
2022-09-02T11:08:29.550Z,21.70
2022-09-02T11:11:06.636Z,21.70
2022-09-02T11:13:39.792Z,21.40
2022-09-02T11:16:15.450Z,21.20
2022-09-02T11:18:53.298Z,21.20
2022-09-02T11:21:36.386Z,21.30
2022-09-02T11:24:11.123Z,21.30
2022-09-02T11:26:47.856Z,21.10
2022-09-02T11:29:22.020Z,21.00
2022-09-02T11:31:59.431Z,21.00
2022-09-02T11:34:38.067Z,21.00
2022-09-02T11:37:08.931Z,21.20
2022-09-02T11:40:17.116Z,21.50
2022-09-02T11:42:48.893Z,21.70
2022-09-02T11:45:33.615Z,21.30
2022-09-02T11:48:34.362Z,21.20
2022-09-02T11:51:37.579Z,21.00
2022-09-02T11:54:08.872Z,20.90
2022-09-02T11:56:41.670Z,21.00
2022-09-02T11:59:21.011Z,21.30
2022-09-02T12:01:52.236Z,21.60
2022-09-02T12:04:59.142Z,21.90
2022-09-02T12:07:33.038Z,21.90
2022-09-02T12:10:03.390Z,21.80
2022-09-02T12:13:18.427Z,22.20
2022-09-02T12:15:47.392Z,22.80
2022-09-02T12:18:37.638Z,23.10
2022-09-02T12:21:15.980Z,23.00
2022-09-02T12:24:21.411Z,23.10
2022-09-02T12:27:21.919Z,23.50
2022-09-02T12:29:51.548Z,23.60
2022-09-02T12:33:05.248Z,23.20
2022-09-02T12:35:52.789Z,23.20
2022-09-02T12:38:40.180Z,22.90
2022-09-02T12:41:30.530Z,23.30
2022-09-02T12:44:14.282Z,23.60
2022-09-02T12:47:02.154Z,23.70
2022-09-02T12:49:42.491Z,23.70
2022-09-02T12:52:15.504Z,23.50
2022-09-02T12:54:49.194Z,23.30
2022-09-02T12:57:21.054Z,22.50
2022-09-02T13:00:00.042Z,22.50
2022-09-02T13:02:45.818Z,22.50
2022-09-02T13:05:24.174Z,22.70
2022-09-02T13:08:49.956Z,22.90
2022-09-02T13:11:48.635Z,22.60
2022-09-02T13:15:05.649Z,22.20
2022-09-02T13:17:48.822Z,21.90
2022-09-02T13:20:53.715Z,21.90
2022-09-02T13:24:03.064Z,21.70
2022-09-02T13:27:04.095Z,21.90
2022-09-02T13:30:06.048Z,22.00
2022-09-02T13:32:35.258Z,22.00
2022-09-02T13:35:07.661Z,22.00
2022-09-02T13:37:38.269Z,21.90
2022-09-02T13:40:19.458Z,21.90
2022-09-02T13:42:51.081Z,21.60
2022-09-02T13:45:22.008Z,21.40
2022-09-02T13:47:53.564Z,21.60
2022-09-02T13:50:25.897Z,22.20
2022-09-02T13:53:59.060Z,22.50
2022-09-02T13:55:52.069Z,22.50
2022-09-02T13:58:36.382Z,22.50
2022-09-02T14:01:24.224Z,22.80
2022-09-02T14:03:54.436Z,22.80
2022-09-02T14:06:26.863Z,22.70
2022-09-02T14:08:59.916Z,22.60
2022-09-02T14:11:29.903Z,22.70
2022-09-02T14:13:58.843Z,22.60
2022-09-02T14:16:33.189Z,22.50
2022-09-02T14:19:10.608Z,22.50
2022-09-02T14:21:47.287Z,22.50
2022-09-02T14:24:20.778Z,22.70
2022-09-02T14:26:52.816Z,22.50
2022-09-02T14:29:25.043Z,22.40
2022-09-02T14:32:13.639Z,22.40
2022-09-02T14:34:43.316Z,22.40
2022-09-02T14:37:25.621Z,22.40
2022-09-02T14:39:56.344Z,22.30
2022-09-02T14:42:28.394Z,22.20
2022-09-02T14:44:59.420Z,22.10
2022-09-02T14:47:28.685Z,22.00
2022-09-02T14:49:58.325Z,22.00
2022-09-02T14:52:33.332Z,22.00
2022-09-02T14:55:03.094Z,21.80
2022-09-02T14:57:38.107Z,21.60
2022-09-02T15:00:09.757Z,21.60
2022-09-02T15:02:42.016Z,21.70
2022-09-02T15:05:14.628Z,21.70
2022-09-02T15:07:46.906Z,21.60
2022-09-02T15:10:15.679Z,21.70
2022-09-02T15:12:49.099Z,21.90
2022-09-02T15:15:18.001Z,22.00
2022-09-02T15:17:46.297Z,21.90
2022-09-02T15:20:17.838Z,21.80
2022-09-02T15:22:47.975Z,21.80
2022-09-02T15:25:16.354Z,21.70
2022-09-02T15:27:44.709Z,21.50
2022-09-02T15:30:14.053Z,21.50
2022-09-02T15:32:43.045Z,21.40
2022-09-02T15:35:11.434Z,21.40
2022-09-02T15:37:40.750Z,21.40
2022-09-02T15:40:12.855Z,21.30
2022-09-02T15:42:41.678Z,21.10
2022-09-02T15:45:10.778Z,21.00
2022-09-02T15:47:39.507Z,20.90
2022-09-02T15:50:08.656Z,20.90
2022-09-02T15:52:38.150Z,21.10
2022-09-02T15:55:08.300Z,21.00
2022-09-02T15:57:38.401Z,21.10
2022-09-02T16:00:09.691Z,21.10
2022-09-02T16:02:39.298Z,21.10
2022-09-02T16:05:08.201Z,21.10
2022-09-02T16:07:36.583Z,21.10
2022-09-02T16:10:05.388Z,21.10
2022-09-02T16:12:34.110Z,21.10
2022-09-02T16:15:03.857Z,21.10
2022-09-02T16:17:32.284Z,21.20
2022-09-02T16:20:00.548Z,21.00
2022-09-02T16:22:29.357Z,21.00
2022-09-02T16:24:58.079Z,21.00
2022-09-02T16:27:40.971Z,20.90
2022-09-02T16:30:12.435Z,20.90
2022-09-02T16:32:44.071Z,20.90
2022-09-02T16:35:12.754Z,20.80
2022-09-02T16:37:41.488Z,20.90
2022-09-02T16:40:21.610Z,20.90
2022-09-02T16:42:50.879Z,20.90
2022-09-02T16:45:20.931Z,20.80
2022-09-02T16:47:49.800Z,20.80
2022-09-02T16:50:18.759Z,20.70
2022-09-02T16:52:47.606Z,20.70
2022-09-02T16:55:19.205Z,20.60
2022-09-02T16:57:48.579Z,20.50
2022-09-02T17:00:18.482Z,20.50
2022-09-02T17:02:49.121Z,20.40
2022-09-02T17:05:20.360Z,20.40
2022-09-02T17:07:52.278Z,20.40
2022-09-02T17:10:24.271Z,20.30
2022-09-02T17:12:56.786Z,20.30
2022-09-02T17:15:32.754Z,20.20
2022-09-02T17:18:04.839Z,20.20
2022-09-02T17:20:40.015Z,20.20
2022-09-02T17:23:12.215Z,20.10
2022-09-02T17:25:41.289Z,20.00
2022-09-02T17:28:10.398Z,20.00
2022-09-02T17:30:39.562Z,20.00
2022-09-02T17:33:09.550Z,19.90
2022-09-02T17:35:38.253Z,19.80
2022-09-02T17:38:07.471Z,19.80
2022-09-02T17:40:53.564Z,19.80
2022-09-02T17:43:29.167Z,19.70
2022-09-02T17:46:09.647Z,19.60
2022-09-02T17:49:05.823Z,19.60
2022-09-02T17:51:45.476Z,19.50
2022-09-02T17:54:18.938Z,19.40
2022-09-02T17:57:09.917Z,19.30
2022-09-02T17:59:53.425Z,19.30
2022-09-02T18:03:01.473Z,19.20
2022-09-02T18:05:40.324Z,19.20
2022-09-02T18:08:15.607Z,19.10
2022-09-02T18:10:57.505Z,19.00
2022-09-02T18:13:35.435Z,19.00
2022-09-02T18:16:25.931Z,18.80
2022-09-02T18:19:04.481Z,18.90
2022-09-02T18:21:44.158Z,18.80
2022-09-02T18:24:21.053Z,18.80
2022-09-02T18:27:01.665Z,18.60
2022-09-02T18:29:46.292Z,18.60
2022-09-02T18:32:28.017Z,18.60
2022-09-02T18:35:05.483Z,18.60
2022-09-02T18:37:48.728Z,18.50
2022-09-02T18:40:24.996Z,18.40
2022-09-02T18:43:08.363Z,18.40
2022-09-02T18:45:49.421Z,18.40
2022-09-02T18:48:21.096Z,18.30
2022-09-02T18:50:55.236Z,18.30
2022-09-02T18:53:29.010Z,18.20
2022-09-02T18:56:00.426Z,18.20
2022-09-02T18:58:37.544Z,18.20
2022-09-02T19:01:17.720Z,18.10
2022-09-02T19:03:50.104Z,18.00
2022-09-02T19:06:21.434Z,18.00
2022-09-02T19:08:56.963Z,17.90
2022-09-02T19:11:25.921Z,17.90
2022-09-02T19:13:56.648Z,17.80
2022-09-02T19:16:28.991Z,17.80
2022-09-02T19:18:57.648Z,17.80
2022-09-02T19:21:35.051Z,17.80
2022-09-02T19:24:08.400Z,17.80
2022-09-02T19:26:37.911Z,17.80
2022-09-02T19:29:07.752Z,17.80
2022-09-02T19:31:36.893Z,17.70
2022-09-02T19:34:06.320Z,17.70
2022-09-02T19:36:39.539Z,17.70
2022-09-02T19:39:10.227Z,17.60
2022-09-02T19:41:39.358Z,17.50
2022-09-02T19:44:07.724Z,17.50
2022-09-02T19:47:15.280Z,17.50
2022-09-02T19:49:24.903Z,17.50
2022-09-02T19:51:54.329Z,17.40
2022-09-02T19:54:24.136Z,17.30
2022-09-02T19:56:53.002Z,17.30
2022-09-02T19:59:21.906Z,17.30
2022-09-02T20:01:50.997Z,17.30
2022-09-02T20:04:20.254Z,17.20
2022-09-02T20:06:48.845Z,17.30
2022-09-02T20:09:19.362Z,17.30
2022-09-02T20:11:52.641Z,17.30
2022-09-02T20:14:22.649Z,17.20
2022-09-02T20:16:58.035Z,17.20
2022-09-02T20:19:26.887Z,17.20
2022-09-02T20:21:56.084Z,17.20
2022-09-02T20:24:27.593Z,17.30
2022-09-02T20:27:45.855Z,17.20
2022-09-02T20:30:18.949Z,17.10
2022-09-02T20:33:01.122Z,17.20
2022-09-02T20:35:54.572Z,17.10
2022-09-02T20:38:37.337Z,17.10
2022-09-02T20:41:27.596Z,17.00
2022-09-02T20:44:15.484Z,17.00
2022-09-02T20:46:58.793Z,17.00
2022-09-02T20:49:54.513Z,16.90
2022-09-02T20:52:31.962Z,16.90
2022-09-02T20:55:12.187Z,16.90
2022-09-02T20:58:16.680Z,16.90
2022-09-02T21:01:06.847Z,16.90
2022-09-02T21:03:47.075Z,16.80
2022-09-02T21:06:17.362Z,16.80
2022-09-02T21:09:01.329Z,16.80
2022-09-02T21:11:48.356Z,16.80
2022-09-02T21:14:25.331Z,16.80
2022-09-02T21:17:07.923Z,16.80
2022-09-02T21:19:55.756Z,16.80
2022-09-02T21:22:30.674Z,16.80
2022-09-02T21:25:04.695Z,16.80
2022-09-02T21:27:36.688Z,16.70
2022-09-02T21:30:09.905Z,16.70
2022-09-02T21:32:46.987Z,16.70
2022-09-02T21:35:23.307Z,16.70
2022-09-02T21:38:01.343Z,16.70
2022-09-02T21:40:50.162Z,16.70
2022-09-02T21:43:36.679Z,16.50
2022-09-02T21:46:17.481Z,16.60
2022-09-02T21:49:02.970Z,16.50
2022-09-02T21:51:36.864Z,16.50
2022-09-02T21:54:25.653Z,16.40
2022-09-02T21:57:20.372Z,16.40
2022-09-02T22:00:01.862Z,16.30
2022-09-02T22:02:50.836Z,16.20
2022-09-02T22:05:38.441Z,16.30
2022-09-02T22:08:18.755Z,16.20
2022-09-02T22:11:00.723Z,16.20
2022-09-02T22:13:33.740Z,16.10
2022-09-02T22:16:15.735Z,16.00
2022-09-02T22:19:00.402Z,16.00
2022-09-02T22:21:40.469Z,16.00
2022-09-02T22:24:09.865Z,15.90
2022-09-02T22:26:47.051Z,16.00
2022-09-02T22:29:22.004Z,16.00
2022-09-02T22:31:57.647Z,15.90
2022-09-02T22:34:30.280Z,15.80
2022-09-02T22:37:10.759Z,15.90
2022-09-02T22:39:49.298Z,15.80
2022-09-02T22:42:26.967Z,15.80
2022-09-02T22:45:20.852Z,15.90
2022-09-02T22:48:12.594Z,15.90
2022-09-02T22:51:04.918Z,15.80
2022-09-02T22:53:35.207Z,15.80
2022-09-02T22:56:06.107Z,15.80
2022-09-02T22:58:47.984Z,15.80
2022-09-02T23:01:25.984Z,15.80
2022-09-02T23:04:17.897Z,15.70
2022-09-02T23:06:46.212Z,15.70
2022-09-02T23:09:18.561Z,15.70
2022-09-02T23:11:57.481Z,15.70
2022-09-02T23:14:35.605Z,15.70
2022-09-02T23:17:20.347Z,15.60
2022-09-02T23:20:00.871Z,15.60
2022-09-02T23:22:42.083Z,15.60
2022-09-02T23:25:30.352Z,15.60
2022-09-02T23:28:05.126Z,15.50
2022-09-02T23:30:36.628Z,15.50
2022-09-02T23:33:19.374Z,15.50
2022-09-02T23:35:57.117Z,15.40
2022-09-02T23:38:44.214Z,15.30
2022-09-02T23:41:15.312Z,15.30
2022-09-02T23:43:44.523Z,15.20
2022-09-02T23:46:28.001Z,15.30
2022-09-02T23:49:08.554Z,15.30
2022-09-02T23:51:47.018Z,15.10
2022-09-02T23:54:31.891Z,15.10
2022-09-02T23:57:17.005Z,15.10
